sensor_id;sensor_type;location;lat;lon;timestamp;P1;durP1;ratioP1;P2;durP2;ratioP2
9413;SDS011;4746;35.664;139.738;2023-08-30T00:00:41;1.77;;;1.38;;
9413;SDS011;4746;35.664;139.738;2023-08-30T00:03:10;2.78;;;1.90;;
9413;SDS011;4746;35.664;139.738;2023-08-30T00:05:40;4.00;;;1.73;;
9413;SDS011;4746;35.664;139.738;2023-08-30T00:08:09;2.58;;;1.15;;
9413;SDS011;4746;35.664;139.738;2023-08-30T00:10:39;1.38;;;1.13;;
9413;SDS011;4746;35.664;139.738;2023-08-30T00:13:09;2.53;;;0.93;;
9413;SDS011;4746;35.664;139.738;2023-08-30T00:15:37;1.08;;;0.98;;
9413;SDS011;4746;35.664;139.738;2023-08-30T00:18:06;0.82;;;0.52;;
9413;SDS011;4746;35.664;139.738;2023-08-30T00:20:35;1.70;;;0.80;;
9413;SDS011;4746;35.664;139.738;2023-08-30T00:23:06;1.67;;;0.82;;
9413;SDS011;4746;35.664;139.738;2023-08-30T00:25:36;1.05;;;0.80;;
9413;SDS011;4746;35.664;139.738;2023-08-30T00:28:07;1.20;;;0.70;;
9413;SDS011;4746;35.664;139.738;2023-08-30T00:30:37;1.45;;;0.63;;
9413;SDS011;4746;35.664;139.738;2023-08-30T00:33:07;1.55;;;0.80;;
9413;SDS011;4746;35.664;139.738;2023-08-30T00:35:37;2.63;;;0.93;;
9413;SDS011;4746;35.664;139.738;2023-08-30T00:38:05;1.20;;;0.73;;
9413;SDS011;4746;35.664;139.738;2023-08-30T00:40:42;0.82;;;0.68;;
9413;SDS011;4746;35.664;139.738;2023-08-30T00:43:10;1.98;;;0.73;;
9413;SDS011;4746;35.664;139.738;2023-08-30T00:45:41;1.08;;;0.90;;
9413;SDS011;4746;35.664;139.738;2023-08-30T00:48:09;3.35;;;1.30;;
9413;SDS011;4746;35.664;139.738;2023-08-30T00:50:39;0.95;;;0.88;;
9413;SDS011;4746;35.664;139.738;2023-08-30T00:53:08;3.92;;;0.98;;
9413;SDS011;4746;35.664;139.738;2023-08-30T00:55:41;6.65;;;1.73;;
9413;SDS011;4746;35.664;139.738;2023-08-30T00:58:12;1.80;;;1.20;;
9413;SDS011;4746;35.664;139.738;2023-08-30T01:00:46;1.88;;;0.88;;
9413;SDS011;4746;35.664;139.738;2023-08-30T01:03:17;2.80;;;1.10;;
9413;SDS011;4746;35.664;139.738;2023-08-30T01:05:49;2.00;;;1.00;;
9413;SDS011;4746;35.664;139.738;2023-08-30T01:08:41;2.60;;;1.00;;
9413;SDS011;4746;35.664;139.738;2023-08-30T01:14:30;1.13;;;0.85;;
9413;SDS011;4746;35.664;139.738;2023-08-30T01:17:39;2.92;;;1.05;;
9413;SDS011;4746;35.664;139.738;2023-08-30T01:20:11;1.63;;;0.93;;
9413;SDS011;4746;35.664;139.738;2023-08-30T01:28:24;1.20;;;0.90;;
9413;SDS011;4746;35.664;139.738;2023-08-30T01:30:57;2.10;;;0.80;;
9413;SDS011;4746;35.664;139.738;2023-08-30T01:33:26;2.90;;;0.90;;
9413;SDS011;4746;35.664;139.738;2023-08-30T01:35:57;3.40;;;1.15;;
9413;SDS011;4746;35.664;139.738;2023-08-30T01:38:28;2.75;;;0.90;;
9413;SDS011;4746;35.664;139.738;2023-08-30T01:40:59;2.95;;;0.90;;
9413;SDS011;4746;35.664;139.738;2023-08-30T01:43:30;1.73;;;1.33;;
9413;SDS011;4746;35.664;139.738;2023-08-30T01:46:00;3.53;;;1.50;;
9413;SDS011;4746;35.664;139.738;2023-08-30T01:48:31;2.85;;;1.13;;
9413;SDS011;4746;35.664;139.738;2023-08-30T01:51:03;2.45;;;1.10;;
9413;SDS011;4746;35.664;139.738;2023-08-30T01:53:33;2.50;;;1.50;;
9413;SDS011;4746;35.664;139.738;2023-08-30T01:56:06;4.93;;;1.63;;
9413;SDS011;4746;35.664;139.738;2023-08-30T01:58:35;4.30;;;2.05;;
9413;SDS011;4746;35.664;139.738;2023-08-30T02:01:04;6.70;;;2.13;;
9413;SDS011;4746;35.664;139.738;2023-08-30T02:03:34;3.08;;;1.42;;
9413;SDS011;4746;35.664;139.738;2023-08-30T02:06:11;4.38;;;1.70;;
9413;SDS011;4746;35.664;139.738;2023-08-30T02:09:47;3.65;;;1.60;;
9413;SDS011;4746;35.664;139.738;2023-08-30T02:12:31;3.80;;;1.63;;
9413;SDS011;4746;35.664;139.738;2023-08-30T02:15:26;3.35;;;1.20;;
9413;SDS011;4746;35.664;139.738;2023-08-30T02:17:59;2.97;;;1.20;;
9413;SDS011;4746;35.664;139.738;2023-08-30T02:20:35;4.10;;;1.48;;
9413;SDS011;4746;35.664;139.738;2023-08-30T02:23:09;4.65;;;1.52;;
9413;SDS011;4746;35.664;139.738;2023-08-30T02:25:45;3.85;;;1.70;;
9413;SDS011;4746;35.664;139.738;2023-08-30T02:28:17;5.07;;;2.20;;
9413;SDS011;4746;35.664;139.738;2023-08-30T02:30:54;3.78;;;1.77;;
9413;SDS011;4746;35.664;139.738;2023-08-30T02:33:31;3.38;;;1.52;;
9413;SDS011;4746;35.664;139.738;2023-08-30T02:36:00;6.22;;;1.55;;
9413;SDS011;4746;35.664;139.738;2023-08-30T02:38:37;6.55;;;1.27;;
9413;SDS011;4746;35.664;139.738;2023-08-30T02:41:06;3.65;;;1.35;;
9413;SDS011;4746;35.664;139.738;2023-08-30T02:43:36;3.22;;;1.42;;
9413;SDS011;4746;35.664;139.738;2023-08-30T02:46:05;1.63;;;0.70;;
9413;SDS011;4746;35.664;139.738;2023-08-30T02:48:33;2.65;;;1.00;;
9413;SDS011;4746;35.664;139.738;2023-08-30T02:51:02;5.97;;;1.20;;
9413;SDS011;4746;35.664;139.738;2023-08-30T02:53:30;1.30;;;1.00;;
9413;SDS011;4746;35.664;139.738;2023-08-30T02:55:58;4.18;;;1.38;;
9413;SDS011;4746;35.664;139.738;2023-08-30T02:58:27;4.18;;;1.02;;
9413;SDS011;4746;35.664;139.738;2023-08-30T03:00:55;3.78;;;1.25;;
9413;SDS011;4746;35.664;139.738;2023-08-30T03:03:27;3.17;;;1.05;;
9413;SDS011;4746;35.664;139.738;2023-08-30T03:05:55;2.90;;;1.20;;
9413;SDS011;4746;35.664;139.738;2023-08-30T03:08:28;2.90;;;1.30;;
9413;SDS011;4746;35.664;139.738;2023-08-30T03:11:08;3.10;;;1.00;;
9413;SDS011;4746;35.664;139.738;2023-08-30T03:13:38;3.63;;;1.40;;
9413;SDS011;4746;35.664;139.738;2023-08-30T03:16:15;3.88;;;1.65;;
9413;SDS011;4746;35.664;139.738;2023-08-30T03:18:43;6.95;;;1.83;;
9413;SDS011;4746;35.664;139.738;2023-08-30T03:21:13;4.85;;;1.60;;
9413;SDS011;4746;35.664;139.738;2023-08-30T03:23:41;2.63;;;0.95;;
9413;SDS011;4746;35.664;139.738;2023-08-30T03:26:27;4.65;;;1.63;;
9413;SDS011;4746;35.664;139.738;2023-08-30T03:29:00;2.65;;;1.17;;
9413;SDS011;4746;35.664;139.738;2023-08-30T03:31:34;2.67;;;0.85;;
9413;SDS011;4746;35.664;139.738;2023-08-30T03:34:09;1.80;;;0.75;;
9413;SDS011;4746;35.664;139.738;2023-08-30T03:36:42;6.05;;;1.30;;
9413;SDS011;4746;35.664;139.738;2023-08-30T03:39:10;6.50;;;1.80;;
9413;SDS011;4746;35.664;139.738;2023-08-30T03:41:38;5.45;;;1.63;;
9413;SDS011;4746;35.664;139.738;2023-08-30T03:44:06;4.55;;;1.33;;
9413;SDS011;4746;35.664;139.738;2023-08-30T03:46:34;1.85;;;1.00;;
9413;SDS011;4746;35.664;139.738;2023-08-30T03:49:03;3.50;;;1.10;;
9413;SDS011;4746;35.664;139.738;2023-08-30T03:51:30;5.53;;;1.50;;
9413;SDS011;4746;35.664;139.738;2023-08-30T03:53:58;4.15;;;1.45;;
9413;SDS011;4746;35.664;139.738;2023-08-30T03:56:30;2.13;;;0.90;;
9413;SDS011;4746;35.664;139.738;2023-08-30T03:58:58;2.60;;;1.02;;
9413;SDS011;4746;35.664;139.738;2023-08-30T04:01:25;3.65;;;1.27;;
9413;SDS011;4746;35.664;139.738;2023-08-30T04:03:53;3.97;;;1.50;;
9413;SDS011;4746;35.664;139.738;2023-08-30T04:06:21;2.92;;;1.10;;
9413;SDS011;4746;35.664;139.738;2023-08-30T04:08:49;2.28;;;1.20;;
9413;SDS011;4746;35.664;139.738;2023-08-30T04:11:17;3.65;;;1.60;;
9413;SDS011;4746;35.664;139.738;2023-08-30T04:13:45;3.25;;;1.20;;
9413;SDS011;4746;35.664;139.738;2023-08-30T04:16:15;4.35;;;1.00;;
9413;SDS011;4746;35.664;139.738;2023-08-30T04:18:46;2.30;;;1.23;;
9413;SDS011;4746;35.664;139.738;2023-08-30T04:21:14;5.97;;;2.08;;
9413;SDS011;4746;35.664;139.738;2023-08-30T04:23:42;6.65;;;2.55;;
9413;SDS011;4746;35.664;139.738;2023-08-30T04:26:09;3.90;;;1.80;;
9413;SDS011;4746;35.664;139.738;2023-08-30T04:28:40;6.28;;;2.83;;
9413;SDS011;4746;35.664;139.738;2023-08-30T04:31:08;6.70;;;2.70;;
9413;SDS011;4746;35.664;139.738;2023-08-30T04:37:29;3.65;;;1.70;;
9413;SDS011;4746;35.664;139.738;2023-08-30T04:40:11;6.07;;;2.45;;
9413;SDS011;4746;35.664;139.738;2023-08-30T04:43:07;5.72;;;2.50;;
9413;SDS011;4746;35.664;139.738;2023-08-30T04:45:38;6.50;;;2.50;;
9413;SDS011;4746;35.664;139.738;2023-08-30T04:48:12;2.70;;;1.40;;
9413;SDS011;4746;35.664;139.738;2023-08-30T04:50:48;5.80;;;2.10;;
9413;SDS011;4746;35.664;139.738;2023-08-30T04:53:37;2.40;;;1.35;;
9413;SDS011;4746;35.664;139.738;2023-08-30T04:56:21;5.57;;;1.73;;
9413;SDS011;4746;35.664;139.738;2023-08-30T04:58:55;3.33;;;1.55;;
9413;SDS011;4746;35.664;139.738;2023-08-30T05:01:38;3.58;;;1.42;;
9413;SDS011;4746;35.664;139.738;2023-08-30T05:04:16;4.90;;;2.05;;
9413;SDS011;4746;35.664;139.738;2023-08-30T05:06:50;4.93;;;2.38;;
9413;SDS011;4746;35.664;139.738;2023-08-30T05:09:26;5.03;;;1.33;;
9413;SDS011;4746;35.664;139.738;2023-08-30T05:14:44;3.70;;;1.40;;
9413;SDS011;4746;35.664;139.738;2023-08-30T05:17:18;3.00;;;1.50;;
9413;SDS011;4746;35.664;139.738;2023-08-30T05:20:25;3.78;;;1.40;;
9413;SDS011;4746;35.664;139.738;2023-08-30T05:23:01;3.75;;;1.85;;
9413;SDS011;4746;35.664;139.738;2023-08-30T05:28:45;5.43;;;1.48;;
9413;SDS011;4746;35.664;139.738;2023-08-30T05:31:12;3.80;;;1.48;;
9413;SDS011;4746;35.664;139.738;2023-08-30T05:34:03;4.13;;;1.23;;
9413;SDS011;4746;35.664;139.738;2023-08-30T05:36:41;4.82;;;1.23;;
9413;SDS011;4746;35.664;139.738;2023-08-30T05:39:09;2.08;;;1.40;;
9413;SDS011;4746;35.664;139.738;2023-08-30T05:41:38;3.92;;;1.45;;
9413;SDS011;4746;35.664;139.738;2023-08-30T05:44:06;4.43;;;1.70;;
9413;SDS011;4746;35.664;139.738;2023-08-30T05:46:35;3.35;;;1.73;;
9413;SDS011;4746;35.664;139.738;2023-08-30T05:49:08;3.70;;;1.90;;
9413;SDS011;4746;35.664;139.738;2023-08-30T05:51:39;4.70;;;1.50;;
9413;SDS011;4746;35.664;139.738;2023-08-30T05:54:10;5.95;;;1.67;;
9413;SDS011;4746;35.664;139.738;2023-08-30T05:56:45;6.13;;;1.75;;
9413;SDS011;4746;35.664;139.738;2023-08-30T05:59:16;4.00;;;1.55;;
9413;SDS011;4746;35.664;139.738;2023-08-30T06:01:49;3.92;;;1.20;;
9413;SDS011;4746;35.664;139.738;2023-08-30T06:04:17;3.63;;;2.03;;
9413;SDS011;4746;35.664;139.738;2023-08-30T06:06:48;4.10;;;1.67;;
9413;SDS011;4746;35.664;139.738;2023-08-30T06:09:25;5.07;;;1.60;;
9413;SDS011;4746;35.664;139.738;2023-08-30T06:12:01;2.38;;;1.27;;
9413;SDS011;4746;35.664;139.738;2023-08-30T06:14:32;2.83;;;1.38;;
9413;SDS011;4746;35.664;139.738;2023-08-30T06:17:19;4.85;;;1.77;;
9413;SDS011;4746;35.664;139.738;2023-08-30T06:19:50;4.30;;;2.08;;
9413;SDS011;4746;35.664;139.738;2023-08-30T06:22:28;7.20;;;2.05;;
9413;SDS011;4746;35.664;139.738;2023-08-30T06:25:08;5.63;;;1.70;;
9413;SDS011;4746;35.664;139.738;2023-08-30T06:27:58;5.15;;;2.22;;
9413;SDS011;4746;35.664;139.738;2023-08-30T06:34:18;4.93;;;1.95;;
9413;SDS011;4746;35.664;139.738;2023-08-30T06:36:53;6.78;;;2.38;;
9413;SDS011;4746;35.664;139.738;2023-08-30T06:39:39;6.20;;;1.75;;
9413;SDS011;4746;35.664;139.738;2023-08-30T06:43:07;6.53;;;2.10;;
9413;SDS011;4746;35.664;139.738;2023-08-30T06:46:08;6.90;;;2.30;;
9413;SDS011;4746;35.664;139.738;2023-08-30T06:48:37;6.72;;;2.15;;
9413;SDS011;4746;35.664;139.738;2023-08-30T06:51:05;4.15;;;1.95;;
9413;SDS011;4746;35.664;139.738;2023-08-30T06:53:39;3.38;;;1.60;;
9413;SDS011;4746;35.664;139.738;2023-08-30T06:56:23;5.20;;;1.80;;
9413;SDS011;4746;35.664;139.738;2023-08-30T06:59:32;6.57;;;2.42;;
9413;SDS011;4746;35.664;139.738;2023-08-30T07:02:03;6.40;;;2.50;;
9413;SDS011;4746;35.664;139.738;2023-08-30T07:04:32;8.00;;;2.70;;
9413;SDS011;4746;35.664;139.738;2023-08-30T07:07:00;7.32;;;2.50;;
9413;SDS011;4746;35.664;139.738;2023-08-30T07:09:28;8.30;;;2.72;;
9413;SDS011;4746;35.664;139.738;2023-08-30T07:11:58;7.15;;;3.03;;
9413;SDS011;4746;35.664;139.738;2023-08-30T07:14:26;9.13;;;2.80;;
9413;SDS011;4746;35.664;139.738;2023-08-30T07:16:54;6.97;;;2.58;;
9413;SDS011;4746;35.664;139.738;2023-08-30T07:19:21;6.05;;;2.70;;
9413;SDS011;4746;35.664;139.738;2023-08-30T07:21:50;7.13;;;2.33;;
9413;SDS011;4746;35.664;139.738;2023-08-30T07:24:18;7.68;;;2.17;;
9413;SDS011;4746;35.664;139.738;2023-08-30T07:26:48;6.20;;;2.00;;
9413;SDS011;4746;35.664;139.738;2023-08-30T07:29:15;10.52;;;3.08;;
9413;SDS011;4746;35.664;139.738;2023-08-30T07:31:43;8.05;;;2.55;;
9413;SDS011;4746;35.664;139.738;2023-08-30T07:34:11;6.57;;;2.38;;
9413;SDS011;4746;35.664;139.738;2023-08-30T07:36:39;5.03;;;2.00;;
9413;SDS011;4746;35.664;139.738;2023-08-30T07:39:07;7.95;;;2.08;;
9413;SDS011;4746;35.664;139.738;2023-08-30T07:41:41;5.53;;;2.63;;
9413;SDS011;4746;35.664;139.738;2023-08-30T07:44:14;10.20;;;3.00;;
9413;SDS011;4746;35.664;139.738;2023-08-30T07:46:54;6.03;;;2.28;;
9413;SDS011;4746;35.664;139.738;2023-08-30T07:49:37;8.13;;;2.67;;
9413;SDS011;4746;35.664;139.738;2023-08-30T07:52:11;6.70;;;2.50;;
9413;SDS011;4746;35.664;139.738;2023-08-30T07:54:39;7.80;;;2.53;;
9413;SDS011;4746;35.664;139.738;2023-08-30T07:57:13;8.20;;;2.33;;
9413;SDS011;4746;35.664;139.738;2023-08-30T07:59:44;7.85;;;2.70;;
9413;SDS011;4746;35.664;139.738;2023-08-30T08:02:15;7.53;;;2.33;;
9413;SDS011;4746;35.664;139.738;2023-08-30T08:04:48;6.78;;;2.78;;
9413;SDS011;4746;35.664;139.738;2023-08-30T08:07:37;8.43;;;2.40;;
9413;SDS011;4746;35.664;139.738;2023-08-30T08:10:06;7.22;;;2.60;;
9413;SDS011;4746;35.664;139.738;2023-08-30T08:12:35;7.75;;;3.17;;
9413;SDS011;4746;35.664;139.738;2023-08-30T08:15:05;5.32;;;2.55;;
9413;SDS011;4746;35.664;139.738;2023-08-30T08:17:33;6.88;;;2.40;;
9413;SDS011;4746;35.664;139.738;2023-08-30T08:20:03;9.25;;;2.90;;
9413;SDS011;4746;35.664;139.738;2023-08-30T08:22:35;9.43;;;2.90;;
9413;SDS011;4746;35.664;139.738;2023-08-30T08:25:09;9.27;;;2.38;;
9413;SDS011;4746;35.664;139.738;2023-08-30T08:27:44;7.95;;;2.92;;
9413;SDS011;4746;35.664;139.738;2023-08-30T08:33:43;8.20;;;2.80;;
9413;SDS011;4746;35.664;139.738;2023-08-30T08:36:07;9.52;;;2.83;;
9413;SDS011;4746;35.664;139.738;2023-08-30T08:39:01;12.98;;;3.03;;
9413;SDS011;4746;35.664;139.738;2023-08-30T08:42:31;6.15;;;2.58;;
9413;SDS011;4746;35.664;139.738;2023-08-30T08:45:23;8.10;;;2.80;;
9413;SDS011;4746;35.664;139.738;2023-08-30T08:47:54;10.85;;;3.08;;
9413;SDS011;4746;35.664;139.738;2023-08-30T08:54:06;9.73;;;3.05;;
9413;SDS011;4746;35.664;139.738;2023-08-30T08:57:01;11.77;;;3.30;;
9413;SDS011;4746;35.664;139.738;2023-08-30T09:00:17;7.97;;;2.63;;
9413;SDS011;4746;35.664;139.738;2023-08-30T09:02:51;11.07;;;2.95;;
9413;SDS011;4746;35.664;139.738;2023-08-30T09:05:43;9.43;;;2.95;;
9413;SDS011;4746;35.664;139.738;2023-08-30T09:08:52;13.50;;;3.40;;
9413;SDS011;4746;35.664;139.738;2023-08-30T09:15:05;7.57;;;2.80;;
9413;SDS011;4746;35.664;139.738;2023-08-30T09:17:42;8.93;;;2.85;;
9413;SDS011;4746;35.664;139.738;2023-08-30T09:20:12;9.23;;;2.90;;
9413;SDS011;4746;35.664;139.738;2023-08-30T09:22:40;12.60;;;3.35;;
9413;SDS011;4746;35.664;139.738;2023-08-30T09:25:10;10.18;;;3.13;;
9413;SDS011;4746;35.664;139.738;2023-08-30T09:28:01;11.30;;;3.50;;
9413;SDS011;4746;35.664;139.738;2023-08-30T09:30:29;8.68;;;3.28;;
9413;SDS011;4746;35.664;139.738;2023-08-30T09:33:01;11.43;;;3.90;;
9413;SDS011;4746;35.664;139.738;2023-08-30T09:35:30;9.02;;;3.42;;
9413;SDS011;4746;35.664;139.738;2023-08-30T09:38:05;10.27;;;2.90;;
9413;SDS011;4746;35.664;139.738;2023-08-30T09:40:49;10.45;;;2.63;;
9413;SDS011;4746;35.664;139.738;2023-08-30T09:43:51;8.88;;;3.13;;
9413;SDS011;4746;35.664;139.738;2023-08-30T09:46:20;12.05;;;3.38;;
9413;SDS011;4746;35.664;139.738;2023-08-30T09:48:49;15.55;;;3.38;;
9413;SDS011;4746;35.664;139.738;2023-08-30T09:51:19;13.93;;;3.53;;
9413;SDS011;4746;35.664;139.738;2023-08-30T09:53:55;10.48;;;3.70;;
9413;SDS011;4746;35.664;139.738;2023-08-30T09:56:46;10.38;;;2.90;;
9413;SDS011;4746;35.664;139.738;2023-08-30T09:59:22;12.80;;;3.28;;
9413;SDS011;4746;35.664;139.738;2023-08-30T10:01:57;10.15;;;3.20;;
9413;SDS011;4746;35.664;139.738;2023-08-30T10:04:28;14.43;;;3.55;;
9413;SDS011;4746;35.664;139.738;2023-08-30T10:07:03;14.38;;;3.53;;
9413;SDS011;4746;35.664;139.738;2023-08-30T10:09:35;8.20;;;3.15;;
9413;SDS011;4746;35.664;139.738;2023-08-30T10:12:17;10.02;;;2.92;;
9413;SDS011;4746;35.664;139.738;2023-08-30T10:14:54;11.95;;;3.45;;
9413;SDS011;4746;35.664;139.738;2023-08-30T10:17:22;8.38;;;3.55;;
9413;SDS011;4746;35.664;139.738;2023-08-30T10:20:05;10.50;;;3.30;;
9413;SDS011;4746;35.664;139.738;2023-08-30T10:22:39;9.98;;;3.17;;
9413;SDS011;4746;35.664;139.738;2023-08-30T10:25:19;16.40;;;3.72;;
9413;SDS011;4746;35.664;139.738;2023-08-30T10:27:57;11.38;;;3.92;;
9413;SDS011;4746;35.664;139.738;2023-08-30T10:30:37;10.80;;;3.97;;
9413;SDS011;4746;35.664;139.738;2023-08-30T10:33:13;11.52;;;3.45;;
9413;SDS011;4746;35.664;139.738;2023-08-30T10:35:49;13.38;;;3.63;;
9413;SDS011;4746;35.664;139.738;2023-08-30T10:38:27;12.88;;;3.95;;
9413;SDS011;4746;35.664;139.738;2023-08-30T10:40:55;13.98;;;3.70;;
9413;SDS011;4746;35.664;139.738;2023-08-30T10:43:34;11.45;;;4.13;;
9413;SDS011;4746;35.664;139.738;2023-08-30T10:46:05;10.85;;;3.33;;
9413;SDS011;4746;35.664;139.738;2023-08-30T10:48:40;10.18;;;3.47;;
9413;SDS011;4746;35.664;139.738;2023-08-30T10:51:21;11.15;;;3.80;;
9413;SDS011;4746;35.664;139.738;2023-08-30T10:54:12;12.18;;;3.88;;
9413;SDS011;4746;35.664;139.738;2023-08-30T10:56:57;9.35;;;3.65;;
9413;SDS011;4746;35.664;139.738;2023-08-30T10:59:26;10.60;;;3.45;;
9413;SDS011;4746;35.664;139.738;2023-08-30T11:02:00;11.00;;;3.50;;
9413;SDS011;4746;35.664;139.738;2023-08-30T11:04:29;11.57;;;3.45;;
9413;SDS011;4746;35.664;139.738;2023-08-30T11:06:57;8.55;;;3.67;;
9413;SDS011;4746;35.664;139.738;2023-08-30T11:09:25;11.15;;;4.13;;
9413;SDS011;4746;35.664;139.738;2023-08-30T11:11:52;9.20;;;3.83;;
9413;SDS011;4746;35.664;139.738;2023-08-30T11:14:20;12.77;;;4.43;;
9413;SDS011;4746;35.664;139.738;2023-08-30T11:16:47;10.52;;;4.07;;
9413;SDS011;4746;35.664;139.738;2023-08-30T11:19:15;10.85;;;3.53;;
9413;SDS011;4746;35.664;139.738;2023-08-30T11:21:43;12.38;;;4.05;;
9413;SDS011;4746;35.664;139.738;2023-08-30T11:24:12;11.65;;;4.00;;
9413;SDS011;4746;35.664;139.738;2023-08-30T11:26:40;12.10;;;3.72;;
9413;SDS011;4746;35.664;139.738;2023-08-30T11:29:12;12.65;;;4.28;;
9413;SDS011;4746;35.664;139.738;2023-08-30T11:31:39;13.30;;;3.83;;
9413;SDS011;4746;35.664;139.738;2023-08-30T11:34:11;9.63;;;2.80;;
9413;SDS011;4746;35.664;139.738;2023-08-30T11:36:38;8.63;;;3.15;;
9413;SDS011;4746;35.664;139.738;2023-08-30T11:39:06;17.35;;;4.03;;
9413;SDS011;4746;35.664;139.738;2023-08-30T11:41:36;11.32;;;3.63;;
9413;SDS011;4746;35.664;139.738;2023-08-30T11:44:05;16.48;;;4.53;;
9413;SDS011;4746;35.664;139.738;2023-08-30T11:46:37;11.63;;;4.38;;
9413;SDS011;4746;35.664;139.738;2023-08-30T11:49:05;14.10;;;4.07;;
9413;SDS011;4746;35.664;139.738;2023-08-30T11:51:39;8.57;;;3.40;;
9413;SDS011;4746;35.664;139.738;2023-08-30T11:54:12;10.85;;;3.53;;
9413;SDS011;4746;35.664;139.738;2023-08-30T11:56:56;12.13;;;3.72;;
9413;SDS011;4746;35.664;139.738;2023-08-30T11:59:27;11.57;;;3.75;;
9413;SDS011;4746;35.664;139.738;2023-08-30T12:02:06;10.98;;;3.33;;
9413;SDS011;4746;35.664;139.738;2023-08-30T12:04:45;13.60;;;4.03;;
9413;SDS011;4746;35.664;139.738;2023-08-30T12:07:22;11.55;;;3.50;;
9413;SDS011;4746;35.664;139.738;2023-08-30T12:10:09;9.68;;;3.22;;
9413;SDS011;4746;35.664;139.738;2023-08-30T12:15:49;12.82;;;3.65;;
9413;SDS011;4746;35.664;139.738;2023-08-30T12:18:37;9.13;;;2.92;;
9413;SDS011;4746;35.664;139.738;2023-08-30T12:21:12;13.57;;;3.30;;
9413;SDS011;4746;35.664;139.738;2023-08-30T12:23:59;10.68;;;3.47;;
9413;SDS011;4746;35.664;139.738;2023-08-30T12:26:36;13.38;;;3.97;;
9413;SDS011;4746;35.664;139.738;2023-08-30T12:29:07;13.90;;;4.05;;
9413;SDS011;4746;35.664;139.738;2023-08-30T12:31:40;12.30;;;3.15;;
9413;SDS011;4746;35.664;139.738;2023-08-30T12:34:08;11.25;;;2.97;;
9413;SDS011;4746;35.664;139.738;2023-08-30T12:36:35;10.30;;;2.78;;
9413;SDS011;4746;35.664;139.738;2023-08-30T12:39:03;9.70;;;3.20;;
9413;SDS011;4746;35.664;139.738;2023-08-30T12:41:31;12.50;;;3.13;;
9413;SDS011;4746;35.664;139.738;2023-08-30T12:43:58;12.98;;;3.80;;
9413;SDS011;4746;35.664;139.738;2023-08-30T12:46:32;12.25;;;3.58;;
9413;SDS011;4746;35.664;139.738;2023-08-30T12:48:59;16.08;;;3.75;;
9413;SDS011;4746;35.664;139.738;2023-08-30T12:51:27;12.68;;;3.70;;
9413;SDS011;4746;35.664;139.738;2023-08-30T12:53:56;11.57;;;3.67;;
9413;SDS011;4746;35.664;139.738;2023-08-30T12:56:23;12.60;;;3.45;;
9413;SDS011;4746;35.664;139.738;2023-08-30T12:58:51;15.70;;;3.40;;
9413;SDS011;4746;35.664;139.738;2023-08-30T13:01:19;13.82;;;3.38;;
9413;SDS011;4746;35.664;139.738;2023-08-30T13:03:46;11.50;;;3.95;;
9413;SDS011;4746;35.664;139.738;2023-08-30T13:06:14;12.40;;;3.47;;
9413;SDS011;4746;35.664;139.738;2023-08-30T13:08:45;12.25;;;3.30;;
9413;SDS011;4746;35.664;139.738;2023-08-30T13:11:13;8.48;;;2.70;;
9413;SDS011;4746;35.664;139.738;2023-08-30T13:13:40;10.93;;;3.03;;
9413;SDS011;4746;35.664;139.738;2023-08-30T13:16:08;14.40;;;3.22;;
9413;SDS011;4746;35.664;139.738;2023-08-30T13:18:35;11.20;;;2.75;;
9413;SDS011;4746;35.664;139.738;2023-08-30T13:21:04;13.27;;;3.45;;
9413;SDS011;4746;35.664;139.738;2023-08-30T13:23:31;12.40;;;3.80;;
9413;SDS011;4746;35.664;139.738;2023-08-30T13:25:59;11.40;;;3.05;;
9413;SDS011;4746;35.664;139.738;2023-08-30T13:28:26;10.90;;;3.58;;
9413;SDS011;4746;35.664;139.738;2023-08-30T13:30:54;9.98;;;2.80;;
9413;SDS011;4746;35.664;139.738;2023-08-30T13:33:22;12.20;;;3.33;;
9413;SDS011;4746;35.664;139.738;2023-08-30T13:35:50;12.73;;;3.13;;
9413;SDS011;4746;35.664;139.738;2023-08-30T13:38:21;9.18;;;3.20;;
9413;SDS011;4746;35.664;139.738;2023-08-30T13:40:50;11.27;;;3.33;;
9413;SDS011;4746;35.664;139.738;2023-08-30T13:43:25;10.95;;;3.60;;
9413;SDS011;4746;35.664;139.738;2023-08-30T13:45:59;10.02;;;2.95;;
9413;SDS011;4746;35.664;139.738;2023-08-30T13:48:36;12.88;;;3.70;;
9413;SDS011;4746;35.664;139.738;2023-08-30T13:51:04;13.93;;;3.72;;
9413;SDS011;4746;35.664;139.738;2023-08-30T13:53:32;15.38;;;3.22;;
9413;SDS011;4746;35.664;139.738;2023-08-30T13:55:59;11.88;;;3.28;;
9413;SDS011;4746;35.664;139.738;2023-08-30T13:58:27;10.65;;;2.85;;
9413;SDS011;4746;35.664;139.738;2023-08-30T14:00:54;12.55;;;2.97;;
9413;SDS011;4746;35.664;139.738;2023-08-30T14:03:24;12.13;;;3.13;;
9413;SDS011;4746;35.664;139.738;2023-08-30T14:05:53;11.85;;;3.42;;
9413;SDS011;4746;35.664;139.738;2023-08-30T14:08:27;10.73;;;3.30;;
9413;SDS011;4746;35.664;139.738;2023-08-30T14:11:04;12.07;;;3.47;;
9413;SDS011;4746;35.664;139.738;2023-08-30T14:13:42;10.05;;;3.35;;
9413;SDS011;4746;35.664;139.738;2023-08-30T14:16:10;12.68;;;3.58;;
9413;SDS011;4746;35.664;139.738;2023-08-30T14:18:44;12.45;;;2.97;;
9413;SDS011;4746;35.664;139.738;2023-08-30T14:21:20;16.88;;;3.28;;
9413;SDS011;4746;35.664;139.738;2023-08-30T14:23:59;12.32;;;3.30;;
9413;SDS011;4746;35.664;139.738;2023-08-30T14:26:46;13.35;;;3.58;;
9413;SDS011;4746;35.664;139.738;2023-08-30T14:29:31;12.50;;;3.75;;
9413;SDS011;4746;35.664;139.738;2023-08-30T14:32:07;13.32;;;3.22;;
9413;SDS011;4746;35.664;139.738;2023-08-30T14:34:47;15.73;;;3.40;;
9413;SDS011;4746;35.664;139.738;2023-08-30T14:37:20;9.40;;;2.80;;
9413;SDS011;4746;35.664;139.738;2023-08-30T14:39:52;14.48;;;3.53;;
9413;SDS011;4746;35.664;139.738;2023-08-30T14:42:20;12.52;;;3.22;;
9413;SDS011;4746;35.664;139.738;2023-08-30T14:44:51;10.88;;;2.95;;
9413;SDS011;4746;35.664;139.738;2023-08-30T14:47:18;15.85;;;3.58;;
9413;SDS011;4746;35.664;139.738;2023-08-30T14:49:49;12.23;;;2.90;;
9413;SDS011;4746;35.664;139.738;2023-08-30T14:52:16;13.13;;;3.10;;
9413;SDS011;4746;35.664;139.738;2023-08-30T14:54:45;14.18;;;3.53;;
9413;SDS011;4746;35.664;139.738;2023-08-30T14:57:12;12.20;;;3.05;;
9413;SDS011;4746;35.664;139.738;2023-08-30T14:59:40;12.90;;;3.42;;
9413;SDS011;4746;35.664;139.738;2023-08-30T15:02:07;14.57;;;3.38;;
9413;SDS011;4746;35.664;139.738;2023-08-30T15:04:35;11.95;;;3.17;;
9413;SDS011;4746;35.664;139.738;2023-08-30T15:07:03;12.57;;;3.75;;
9413;SDS011;4746;35.664;139.738;2023-08-30T15:09:30;6.60;;;3.05;;
9413;SDS011;4746;35.664;139.738;2023-08-30T15:11:58;12.90;;;3.58;;
9413;SDS011;4746;35.664;139.738;2023-08-30T15:14:26;14.52;;;4.03;;
9413;SDS011;4746;35.664;139.738;2023-08-30T15:16:53;13.38;;;3.47;;
9413;SDS011;4746;35.664;139.738;2023-08-30T15:19:21;11.45;;;3.60;;
9413;SDS011;4746;35.664;139.738;2023-08-30T15:21:48;11.38;;;3.80;;
9413;SDS011;4746;35.664;139.738;2023-08-30T15:24:16;10.05;;;3.35;;
9413;SDS011;4746;35.664;139.738;2023-08-30T15:26:43;13.02;;;4.57;;
9413;SDS011;4746;35.664;139.738;2023-08-30T15:29:11;15.27;;;3.95;;
9413;SDS011;4746;35.664;139.738;2023-08-30T15:31:39;10.10;;;3.42;;
9413;SDS011;4746;35.664;139.738;2023-08-30T15:34:10;13.30;;;3.45;;
9413;SDS011;4746;35.664;139.738;2023-08-30T15:36:38;11.45;;;3.80;;
9413;SDS011;4746;35.664;139.738;2023-08-30T15:39:05;14.20;;;3.42;;
9413;SDS011;4746;35.664;139.738;2023-08-30T15:41:35;9.88;;;3.50;;
9413;SDS011;4746;35.664;139.738;2023-08-30T15:44:03;11.15;;;3.63;;
9413;SDS011;4746;35.664;139.738;2023-08-30T15:46:31;13.13;;;3.83;;
9413;SDS011;4746;35.664;139.738;2023-08-30T15:48:59;11.48;;;3.25;;
9413;SDS011;4746;35.664;139.738;2023-08-30T15:51:26;9.43;;;3.13;;
9413;SDS011;4746;35.664;139.738;2023-08-30T15:53:54;13.23;;;4.05;;
9413;SDS011;4746;35.664;139.738;2023-08-30T15:56:22;15.52;;;3.75;;